Hovedside
METAR-TAF:

METAR-TAF

Lufthavner :

Vidsel, Sverige

breddegrad: 65-52N, lengdegrad: 020-08E, høyde over havet: 180 m

Gjeldene værobservasjon

Denne rapporten ble laget for 18 minutter siden, klokken 04:20 UTC
Vind 1 kt fra Øst-nordøst
Temperatur -7°C
Luftfuktighet 93%
Trykk 1028 hPa
Sikt: 1500 m

METAR: ESPE 190420Z AUTO 07001KT 1500 // VV005 M07/M08 Q1028

Tid: 05:38 (04:38 UTC)

Varsel

Denne rapporten ble laget for 15 timer og 18 minutter siden, klokken 13:20 UTC
Varsel gyldig fra 18. klokken 13 UTC til 18. klokken 15 UTC
Vind 2 kt fra skiftende retning
Sikt: 7000 m
Brutte skyer i en høyde av 700 ft
lett snø
Midlertidig
fra 18. klokken 13 UTC til 18. klokken 15 UTC
Sikt: 1000 m
i en høyde av 1500 ft
snø, kornsnø

TAF: ESPE 181320Z 1813/1815 VRB02KT 7000 -SN BKN007 TEMPO 1813/1815 1000 SN SG VV015 RMK MIL

Værobservasjoner og værvarsel for over 4000 flyplasser (METAR- og TAF-rapporter).

Tilgjengelige stasjoner er representert av de røde og gule prikkene på kartet.

Hold musepekeren over prikken for å se navnet på stasjonen.

Klikk så for å se værobservasjoner og -varsler.

For å forandre kartet kan du klikke på den grønne knappen med svart kryss for å zoome inn, på den grønne knappen med strek for å zoome ut, eller på de grønne pilene for å se tilstøtende kart.


METAR-TAF: